sensor_id;sensor_type;location;lat;lon;timestamp;P1;durP1;ratioP1;P2;durP2;ratioP2
25299;SDS011;13241;51.208;4.432;2023-02-11T00:01:49;7.28;;;2.75;;
25299;SDS011;13241;51.208;4.432;2023-02-11T00:04:16;6.35;;;2.88;;
25299;SDS011;13241;51.208;4.432;2023-02-11T00:06:43;7.00;;;1.88;;
25299;SDS011;13241;51.208;4.432;2023-02-11T00:09:10;6.28;;;2.53;;
25299;SDS011;13241;51.208;4.432;2023-02-11T00:11:37;9.20;;;2.85;;
25299;SDS011;13241;51.208;4.432;2023-02-11T00:14:05;7.07;;;2.30;;
25299;SDS011;13241;51.208;4.432;2023-02-11T00:16:35;8.43;;;3.17;;
25299;SDS011;13241;51.208;4.432;2023-02-11T00:19:02;11.70;;;3.28;;
25299;SDS011;13241;51.208;4.432;2023-02-11T00:21:31;8.05;;;2.45;;
25299;SDS011;13241;51.208;4.432;2023-02-11T00:23:59;6.85;;;2.63;;
25299;SDS011;13241;51.208;4.432;2023-02-11T00:26:31;4.40;;;2.20;;
25299;SDS011;13241;51.208;4.432;2023-02-11T00:29:07;11.70;;;3.03;;
25299;SDS011;13241;51.208;4.432;2023-02-11T00:31:35;11.45;;;2.53;;
25299;SDS011;13241;51.208;4.432;2023-02-11T00:34:03;6.20;;;2.38;;
25299;SDS011;13241;51.208;4.432;2023-02-11T00:36:30;5.22;;;2.00;;
25299;SDS011;13241;51.208;4.432;2023-02-11T00:38:58;7.57;;;2.28;;
25299;SDS011;13241;51.208;4.432;2023-02-11T00:41:26;7.45;;;2.38;;
25299;SDS011;13241;51.208;4.432;2023-02-11T00:43:53;8.88;;;2.50;;
25299;SDS011;13241;51.208;4.432;2023-02-11T00:46:20;8.85;;;2.58;;
25299;SDS011;13241;51.208;4.432;2023-02-11T00:48:48;5.15;;;2.13;;
25299;SDS011;13241;51.208;4.432;2023-02-11T00:51:19;1.75;;;1.60;;
25299;SDS011;13241;51.208;4.432;2023-02-11T00:53:47;4.85;;;2.58;;
25299;SDS011;13241;51.208;4.432;2023-02-11T00:56:15;7.05;;;2.25;;
25299;SDS011;13241;51.208;4.432;2023-02-11T00:58:42;5.85;;;1.85;;
25299;SDS011;13241;51.208;4.432;2023-02-11T01:01:09;8.82;;;2.58;;
25299;SDS011;13241;51.208;4.432;2023-02-11T01:03:37;4.93;;;2.08;;
25299;SDS011;13241;51.208;4.432;2023-02-11T01:06:06;2.95;;;1.65;;
25299;SDS011;13241;51.208;4.432;2023-02-11T01:08:36;5.55;;;2.03;;
25299;SDS011;13241;51.208;4.432;2023-02-11T01:11:04;8.38;;;2.00;;
25299;SDS011;13241;51.208;4.432;2023-02-11T01:13:34;11.45;;;3.15;;
25299;SDS011;13241;51.208;4.432;2023-02-11T01:16:02;7.95;;;2.15;;
25299;SDS011;13241;51.208;4.432;2023-02-11T01:18:32;1.90;;;1.70;;
25299;SDS011;13241;51.208;4.432;2023-02-11T01:21:00;2.13;;;1.75;;
25299;SDS011;13241;51.208;4.432;2023-02-11T01:23:29;6.47;;;2.05;;
25299;SDS011;13241;51.208;4.432;2023-02-11T01:25:59;15.82;;;2.53;;
25299;SDS011;13241;51.208;4.432;2023-02-11T01:28:28;6.78;;;2.08;;
25299;SDS011;13241;51.208;4.432;2023-02-11T01:30:59;2.75;;;1.65;;
25299;SDS011;13241;51.208;4.432;2023-02-11T01:33:27;6.43;;;1.80;;
25299;SDS011;13241;51.208;4.432;2023-02-11T01:35:54;5.13;;;1.77;;
25299;SDS011;13241;51.208;4.432;2023-02-11T01:38:22;3.80;;;1.70;;
25299;SDS011;13241;51.208;4.432;2023-02-11T01:43:24;5.05;;;2.08;;
25299;SDS011;13241;51.208;4.432;2023-02-11T01:45:53;2.25;;;1.58;;
25299;SDS011;13241;51.208;4.432;2023-02-11T01:48:35;1.63;;;1.33;;
25299;SDS011;13241;51.208;4.432;2023-02-11T01:51:11;7.13;;;2.42;;
25299;SDS011;13241;51.208;4.432;2023-02-11T01:53:42;7.65;;;1.88;;
25299;SDS011;13241;51.208;4.432;2023-02-11T01:56:28;16.23;;;3.00;;
25299;SDS011;13241;51.208;4.432;2023-02-11T01:59:17;3.13;;;1.67;;
25299;SDS011;13241;51.208;4.432;2023-02-11T02:01:55;7.47;;;2.60;;
25299;SDS011;13241;51.208;4.432;2023-02-11T02:04:24;2.92;;;1.67;;
25299;SDS011;13241;51.208;4.432;2023-02-11T02:06:59;5.82;;;2.35;;
25299;SDS011;13241;51.208;4.432;2023-02-11T02:09:36;5.03;;;2.22;;
25299;SDS011;13241;51.208;4.432;2023-02-11T02:14:37;7.38;;;2.45;;
25299;SDS011;13241;51.208;4.432;2023-02-11T02:17:06;3.45;;;2.15;;
25299;SDS011;13241;51.208;4.432;2023-02-11T02:30:37;2.80;;;1.90;;
25299;SDS011;13241;51.208;4.432;2023-02-11T02:33:33;14.50;;;2.67;;
25299;SDS011;13241;51.208;4.432;2023-02-11T02:36:13;4.05;;;2.60;;
25299;SDS011;13241;51.208;4.432;2023-02-11T02:38:54;3.45;;;2.17;;
25299;SDS011;13241;51.208;4.432;2023-02-11T02:41:30;5.22;;;2.15;;
25299;SDS011;13241;51.208;4.432;2023-02-11T02:43:59;6.90;;;2.47;;
25299;SDS011;13241;51.208;4.432;2023-02-11T02:46:27;19.40;;;4.22;;
25299;SDS011;13241;51.208;4.432;2023-02-11T02:48:56;7.20;;;2.67;;
25299;SDS011;13241;51.208;4.432;2023-02-11T03:00:13;9.82;;;2.75;;
25299;SDS011;13241;51.208;4.432;2023-02-11T03:08:43;8.20;;;3.92;;
25299;SDS011;13241;51.208;4.432;2023-02-11T03:11:18;13.88;;;2.88;;
25299;SDS011;13241;51.208;4.432;2023-02-11T03:13:47;4.45;;;2.80;;
25299;SDS011;13241;51.208;4.432;2023-02-11T03:16:19;10.95;;;3.67;;
25299;SDS011;13241;51.208;4.432;2023-02-11T03:18:55;5.05;;;2.85;;
25299;SDS011;13241;51.208;4.432;2023-02-11T03:21:27;7.43;;;3.28;;
25299;SDS011;13241;51.208;4.432;2023-02-11T03:23:58;9.23;;;2.92;;
25299;SDS011;13241;51.208;4.432;2023-02-11T03:34:33;12.57;;;4.15;;
25299;SDS011;13241;51.208;4.432;2023-02-11T03:39:45;8.77;;;3.50;;
25299;SDS011;13241;51.208;4.432;2023-02-11T03:42:17;12.23;;;3.88;;
25299;SDS011;13241;51.208;4.432;2023-02-11T03:44:47;8.85;;;3.33;;
25299;SDS011;13241;51.208;4.432;2023-02-11T03:47:18;9.07;;;3.13;;
25299;SDS011;13241;51.208;4.432;2023-02-11T03:49:50;6.63;;;3.08;;
25299;SDS011;13241;51.208;4.432;2023-02-11T03:52:20;6.53;;;3.38;;
25299;SDS011;13241;51.208;4.432;2023-02-11T03:54:50;6.25;;;3.33;;
25299;SDS011;13241;51.208;4.432;2023-02-11T03:57:22;14.25;;;4.32;;
25299;SDS011;13241;51.208;4.432;2023-02-11T03:59:57;5.20;;;3.22;;
25299;SDS011;13241;51.208;4.432;2023-02-11T04:02:32;10.25;;;4.05;;
25299;SDS011;13241;51.208;4.432;2023-02-11T04:05:01;10.38;;;4.47;;
25299;SDS011;13241;51.208;4.432;2023-02-11T04:07:28;7.35;;;3.47;;
25299;SDS011;13241;51.208;4.432;2023-02-11T04:09:55;10.00;;;4.30;;
25299;SDS011;13241;51.208;4.432;2023-02-11T04:12:22;8.75;;;3.53;;
25299;SDS011;13241;51.208;4.432;2023-02-11T04:14:49;11.43;;;4.00;;
25299;SDS011;13241;51.208;4.432;2023-02-11T04:17:16;5.68;;;3.22;;
25299;SDS011;13241;51.208;4.432;2023-02-11T04:19:44;5.05;;;3.80;;
25299;SDS011;13241;51.208;4.432;2023-02-11T04:22:10;12.77;;;4.40;;
25299;SDS011;13241;51.208;4.432;2023-02-11T04:24:37;10.90;;;4.53;;
25299;SDS011;13241;51.208;4.432;2023-02-11T04:27:04;10.90;;;3.88;;
25299;SDS011;13241;51.208;4.432;2023-02-11T04:29:31;9.27;;;4.13;;
25299;SDS011;13241;51.208;4.432;2023-02-11T04:31:58;10.02;;;4.03;;
25299;SDS011;13241;51.208;4.432;2023-02-11T04:34:25;14.40;;;4.72;;
25299;SDS011;13241;51.208;4.432;2023-02-11T04:36:53;12.35;;;4.22;;
25299;SDS011;13241;51.208;4.432;2023-02-11T04:39:20;12.10;;;4.15;;
25299;SDS011;13241;51.208;4.432;2023-02-11T04:41:47;11.10;;;4.60;;
25299;SDS011;13241;51.208;4.432;2023-02-11T04:44:14;11.13;;;3.75;;
25299;SDS011;13241;51.208;4.432;2023-02-11T04:46:41;12.55;;;5.18;;
25299;SDS011;13241;51.208;4.432;2023-02-11T04:49:10;10.88;;;4.82;;
25299;SDS011;13241;51.208;4.432;2023-02-11T04:51:39;9.05;;;3.25;;
25299;SDS011;13241;51.208;4.432;2023-02-11T04:54:06;8.50;;;3.85;;
25299;SDS011;13241;51.208;4.432;2023-02-11T04:56:33;14.20;;;4.10;;
25299;SDS011;13241;51.208;4.432;2023-02-11T04:59:01;6.15;;;3.28;;
25299;SDS011;13241;51.208;4.432;2023-02-11T05:01:28;18.35;;;4.80;;
25299;SDS011;13241;51.208;4.432;2023-02-11T05:03:55;6.97;;;3.85;;
25299;SDS011;13241;51.208;4.432;2023-02-11T05:06:22;8.98;;;3.83;;
25299;SDS011;13241;51.208;4.432;2023-02-11T05:08:49;9.95;;;4.43;;
25299;SDS011;13241;51.208;4.432;2023-02-11T05:11:17;7.93;;;3.80;;
25299;SDS011;13241;51.208;4.432;2023-02-11T05:13:48;7.70;;;4.05;;
25299;SDS011;13241;51.208;4.432;2023-02-11T05:16:15;8.13;;;4.38;;
25299;SDS011;13241;51.208;4.432;2023-02-11T05:18:43;6.35;;;4.35;;
25299;SDS011;13241;51.208;4.432;2023-02-11T05:21:14;6.68;;;3.67;;
25299;SDS011;13241;51.208;4.432;2023-02-11T05:23:42;8.27;;;3.95;;
25299;SDS011;13241;51.208;4.432;2023-02-11T05:26:11;12.15;;;5.15;;
25299;SDS011;13241;51.208;4.432;2023-02-11T05:28:40;7.57;;;3.83;;
25299;SDS011;13241;51.208;4.432;2023-02-11T05:31:08;22.67;;;5.05;;
25299;SDS011;13241;51.208;4.432;2023-02-11T05:33:37;25.85;;;5.13;;
25299;SDS011;13241;51.208;4.432;2023-02-11T05:36:05;15.85;;;4.43;;
25299;SDS011;13241;51.208;4.432;2023-02-11T05:38:35;10.70;;;4.18;;
25299;SDS011;13241;51.208;4.432;2023-02-11T05:41:04;9.25;;;4.97;;
25299;SDS011;13241;51.208;4.432;2023-02-11T05:43:32;13.85;;;4.53;;
25299;SDS011;13241;51.208;4.432;2023-02-11T05:46:01;9.52;;;4.35;;
25299;SDS011;13241;51.208;4.432;2023-02-11T05:48:28;9.23;;;4.03;;
25299;SDS011;13241;51.208;4.432;2023-02-11T05:50:55;13.05;;;5.60;;
25299;SDS011;13241;51.208;4.432;2023-02-11T05:53:22;6.60;;;4.47;;
25299;SDS011;13241;51.208;4.432;2023-02-11T05:55:49;16.67;;;5.60;;
25299;SDS011;13241;51.208;4.432;2023-02-11T05:58:18;13.57;;;4.30;;
25299;SDS011;13241;51.208;4.432;2023-02-11T06:00:44;9.30;;;4.45;;
25299;SDS011;13241;51.208;4.432;2023-02-11T06:03:11;8.57;;;3.70;;
25299;SDS011;13241;51.208;4.432;2023-02-11T06:05:38;17.10;;;5.75;;
25299;SDS011;13241;51.208;4.432;2023-02-11T06:08:05;9.88;;;5.03;;
25299;SDS011;13241;51.208;4.432;2023-02-11T06:10:32;20.73;;;5.65;;
25299;SDS011;13241;51.208;4.432;2023-02-11T06:12:58;12.15;;;5.95;;
25299;SDS011;13241;51.208;4.432;2023-02-11T06:15:29;13.00;;;5.90;;
25299;SDS011;13241;51.208;4.432;2023-02-11T06:17:55;11.05;;;4.57;;
25299;SDS011;13241;51.208;4.432;2023-02-11T06:20:22;14.48;;;5.78;;
25299;SDS011;13241;51.208;4.432;2023-02-11T06:22:49;14.23;;;5.38;;
25299;SDS011;13241;51.208;4.432;2023-02-11T06:25:16;12.35;;;6.22;;
25299;SDS011;13241;51.208;4.432;2023-02-11T06:27:42;18.65;;;5.53;;
25299;SDS011;13241;51.208;4.432;2023-02-11T06:30:09;10.57;;;4.78;;
25299;SDS011;13241;51.208;4.432;2023-02-11T06:32:37;21.83;;;7.57;;
25299;SDS011;13241;51.208;4.432;2023-02-11T06:37:38;10.05;;;5.55;;
25299;SDS011;13241;51.208;4.432;2023-02-11T06:40:06;11.85;;;5.43;;
25299;SDS011;13241;51.208;4.432;2023-02-11T06:42:33;19.17;;;6.18;;
25299;SDS011;13241;51.208;4.432;2023-02-11T06:45:01;17.25;;;6.13;;
25299;SDS011;13241;51.208;4.432;2023-02-11T06:47:31;10.00;;;5.97;;
25299;SDS011;13241;51.208;4.432;2023-02-11T06:49:57;11.65;;;6.00;;
25299;SDS011;13241;51.208;4.432;2023-02-11T06:52:24;19.45;;;6.57;;
25299;SDS011;13241;51.208;4.432;2023-02-11T06:54:51;13.98;;;6.38;;
25299;SDS011;13241;51.208;4.432;2023-02-11T06:57:18;11.38;;;5.75;;
25299;SDS011;13241;51.208;4.432;2023-02-11T06:59:45;11.27;;;5.70;;
25299;SDS011;13241;51.208;4.432;2023-02-11T07:02:11;19.17;;;7.03;;
25299;SDS011;13241;51.208;4.432;2023-02-11T07:04:38;9.80;;;5.55;;
25299;SDS011;13241;51.208;4.432;2023-02-11T07:07:05;15.07;;;7.43;;
25299;SDS011;13241;51.208;4.432;2023-02-11T07:09:32;14.38;;;6.20;;
25299;SDS011;13241;51.208;4.432;2023-02-11T07:11:58;11.43;;;6.90;;
25299;SDS011;13241;51.208;4.432;2023-02-11T07:14:25;14.82;;;5.95;;
25299;SDS011;13241;51.208;4.432;2023-02-11T07:16:52;14.00;;;7.03;;
25299;SDS011;13241;51.208;4.432;2023-02-11T07:19:19;10.82;;;5.35;;
25299;SDS011;13241;51.208;4.432;2023-02-11T07:21:45;15.77;;;7.03;;
25299;SDS011;13241;51.208;4.432;2023-02-11T07:24:14;15.82;;;7.03;;
25299;SDS011;13241;51.208;4.432;2023-02-11T07:26:41;12.20;;;6.95;;
25299;SDS011;13241;51.208;4.432;2023-02-11T07:29:07;11.20;;;5.93;;
25299;SDS011;13241;51.208;4.432;2023-02-11T07:31:34;14.48;;;7.93;;
25299;SDS011;13241;51.208;4.432;2023-02-11T07:34:01;11.57;;;6.25;;
25299;SDS011;13241;51.208;4.432;2023-02-11T07:36:29;16.27;;;5.60;;
25299;SDS011;13241;51.208;4.432;2023-02-11T07:38:57;18.52;;;7.30;;
25299;SDS011;13241;51.208;4.432;2023-02-11T07:41:25;18.20;;;7.80;;
25299;SDS011;13241;51.208;4.432;2023-02-11T07:43:52;16.33;;;8.07;;
25299;SDS011;13241;51.208;4.432;2023-02-11T07:46:21;21.75;;;8.75;;
25299;SDS011;13241;51.208;4.432;2023-02-11T07:48:49;17.23;;;7.75;;
25299;SDS011;13241;51.208;4.432;2023-02-11T07:51:20;16.27;;;7.32;;
25299;SDS011;13241;51.208;4.432;2023-02-11T07:53:47;16.58;;;7.60;;
25299;SDS011;13241;51.208;4.432;2023-02-11T07:56:15;16.42;;;7.85;;
25299;SDS011;13241;51.208;4.432;2023-02-11T07:58:42;26.23;;;8.27;;
25299;SDS011;13241;51.208;4.432;2023-02-11T08:01:11;19.10;;;7.57;;
25299;SDS011;13241;51.208;4.432;2023-02-11T08:03:50;24.05;;;8.38;;
25299;SDS011;13241;51.208;4.432;2023-02-11T08:06:18;19.33;;;7.90;;
25299;SDS011;13241;51.208;4.432;2023-02-11T08:08:47;32.38;;;9.48;;
25299;SDS011;13241;51.208;4.432;2023-02-11T08:11:16;24.13;;;8.98;;
25299;SDS011;13241;51.208;4.432;2023-02-11T08:13:45;19.67;;;8.55;;
25299;SDS011;13241;51.208;4.432;2023-02-11T08:16:19;20.20;;;9.32;;
25299;SDS011;13241;51.208;4.432;2023-02-11T08:18:48;22.25;;;9.55;;
25299;SDS011;13241;51.208;4.432;2023-02-11T08:21:16;16.98;;;7.38;;
25299;SDS011;13241;51.208;4.432;2023-02-11T08:23:43;17.95;;;8.43;;
25299;SDS011;13241;51.208;4.432;2023-02-11T08:26:12;15.75;;;7.75;;
25299;SDS011;13241;51.208;4.432;2023-02-11T08:28:44;21.30;;;9.00;;
25299;SDS011;13241;51.208;4.432;2023-02-11T08:31:19;23.30;;;10.00;;
25299;SDS011;13241;51.208;4.432;2023-02-11T08:33:58;26.08;;;9.88;;
25299;SDS011;13241;51.208;4.432;2023-02-11T08:36:30;21.38;;;9.43;;
25299;SDS011;13241;51.208;4.432;2023-02-11T08:38:59;28.13;;;10.05;;
25299;SDS011;13241;51.208;4.432;2023-02-11T08:41:44;18.55;;;9.73;;
25299;SDS011;13241;51.208;4.432;2023-02-11T08:44:13;27.48;;;11.10;;
25299;SDS011;13241;51.208;4.432;2023-02-11T08:46:40;26.10;;;9.43;;
25299;SDS011;13241;51.208;4.432;2023-02-11T08:49:07;23.95;;;10.00;;
25299;SDS011;13241;51.208;4.432;2023-02-11T08:51:34;23.05;;;9.82;;
25299;SDS011;13241;51.208;4.432;2023-02-11T08:54:01;22.65;;;10.30;;
25299;SDS011;13241;51.208;4.432;2023-02-11T08:56:28;24.88;;;10.35;;
25299;SDS011;13241;51.208;4.432;2023-02-11T08:58:56;28.13;;;10.85;;
25299;SDS011;13241;51.208;4.432;2023-02-11T09:01:25;23.88;;;9.98;;
25299;SDS011;13241;51.208;4.432;2023-02-11T09:03:54;35.35;;;11.07;;
25299;SDS011;13241;51.208;4.432;2023-02-11T09:06:22;32.20;;;11.43;;
25299;SDS011;13241;51.208;4.432;2023-02-11T09:08:50;24.10;;;10.65;;
25299;SDS011;13241;51.208;4.432;2023-02-11T09:11:19;24.08;;;11.63;;
25299;SDS011;13241;51.208;4.432;2023-02-11T09:13:50;30.23;;;11.65;;
25299;SDS011;13241;51.208;4.432;2023-02-11T09:16:21;40.25;;;14.90;;
25299;SDS011;13241;51.208;4.432;2023-02-11T09:18:50;33.30;;;12.43;;
25299;SDS011;13241;51.208;4.432;2023-02-11T09:21:17;29.08;;;12.50;;
25299;SDS011;13241;51.208;4.432;2023-02-11T09:23:45;30.30;;;10.77;;
25299;SDS011;13241;51.208;4.432;2023-02-11T09:26:14;28.33;;;10.73;;
25299;SDS011;13241;51.208;4.432;2023-02-11T09:28:42;37.60;;;13.85;;
25299;SDS011;13241;51.208;4.432;2023-02-11T09:31:11;30.15;;;11.57;;
25299;SDS011;13241;51.208;4.432;2023-02-11T09:33:40;29.85;;;12.07;;
25299;SDS011;13241;51.208;4.432;2023-02-11T09:36:19;22.35;;;11.10;;
25299;SDS011;13241;51.208;4.432;2023-02-11T09:38:48;36.92;;;12.55;;
25299;SDS011;13241;51.208;4.432;2023-02-11T09:43:52;25.27;;;11.13;;
25299;SDS011;13241;51.208;4.432;2023-02-11T09:46:21;20.15;;;10.95;;
25299;SDS011;13241;51.208;4.432;2023-02-11T09:48:49;26.55;;;11.73;;
25299;SDS011;13241;51.208;4.432;2023-02-11T09:51:41;26.17;;;10.77;;
25299;SDS011;13241;51.208;4.432;2023-02-11T09:54:20;29.00;;;11.98;;
25299;SDS011;13241;51.208;4.432;2023-02-11T09:56:53;32.72;;;13.07;;
25299;SDS011;13241;51.208;4.432;2023-02-11T09:59:20;27.55;;;12.98;;
25299;SDS011;13241;51.208;4.432;2023-02-11T10:04:43;30.85;;;12.95;;
25299;SDS011;13241;51.208;4.432;2023-02-11T10:07:17;30.27;;;12.93;;
25299;SDS011;13241;51.208;4.432;2023-02-11T10:10:00;35.55;;;13.15;;
25299;SDS011;13241;51.208;4.432;2023-02-11T10:12:46;32.03;;;13.48;;
25299;SDS011;13241;51.208;4.432;2023-02-11T10:23:45;34.78;;;12.90;;
25299;SDS011;13241;51.208;4.432;2023-02-11T10:26:17;28.27;;;13.25;;
25299;SDS011;13241;51.208;4.432;2023-02-11T10:28:45;27.85;;;13.18;;
25299;SDS011;13241;51.208;4.432;2023-02-11T10:31:24;26.60;;;13.80;;
25299;SDS011;13241;51.208;4.432;2023-02-11T10:34:09;30.92;;;13.20;;
25299;SDS011;13241;51.208;4.432;2023-02-11T10:36:38;31.50;;;14.10;;
25299;SDS011;13241;51.208;4.432;2023-02-11T10:39:14;30.13;;;12.68;;
25299;SDS011;13241;51.208;4.432;2023-02-11T10:41:50;30.02;;;14.98;;
25299;SDS011;13241;51.208;4.432;2023-02-11T10:44:27;29.08;;;12.82;;
25299;SDS011;13241;51.208;4.432;2023-02-11T10:46:58;33.20;;;14.65;;
25299;SDS011;13241;51.208;4.432;2023-02-11T10:49:32;28.85;;;11.60;;
25299;SDS011;13241;51.208;4.432;2023-02-11T10:57:25;29.35;;;11.38;;
25299;SDS011;13241;51.208;4.432;2023-02-11T11:00:00;32.30;;;13.40;;
25299;SDS011;13241;51.208;4.432;2023-02-11T11:02:33;27.60;;;13.02;;
25299;SDS011;13241;51.208;4.432;2023-02-11T11:05:17;31.20;;;12.30;;
25299;SDS011;13241;51.208;4.432;2023-02-11T11:07:57;30.92;;;12.65;;
25299;SDS011;13241;51.208;4.432;2023-02-11T11:13:01;25.52;;;12.43;;
25299;SDS011;13241;51.208;4.432;2023-02-11T11:15:29;25.38;;;12.07;;
25299;SDS011;13241;51.208;4.432;2023-02-11T11:18:16;25.63;;;12.68;;
25299;SDS011;13241;51.208;4.432;2023-02-11T11:23:29;35.90;;;12.15;;
25299;SDS011;13241;51.208;4.432;2023-02-11T11:28:41;26.63;;;12.70;;
25299;SDS011;13241;51.208;4.432;2023-02-11T11:31:22;28.50;;;10.90;;
25299;SDS011;13241;51.208;4.432;2023-02-11T11:33:53;31.75;;;12.43;;
25299;SDS011;13241;51.208;4.432;2023-02-11T11:36:24;25.58;;;12.13;;
25299;SDS011;13241;51.208;4.432;2023-02-11T11:38:59;33.28;;;13.32;;
25299;SDS011;13241;51.208;4.432;2023-02-11T11:41:30;31.88;;;13.77;;
25299;SDS011;13241;51.208;4.432;2023-02-11T11:44:44;37.03;;;13.98;;
25299;SDS011;13241;51.208;4.432;2023-02-11T11:49:50;30.88;;;13.50;;
25299;SDS011;13241;51.208;4.432;2023-02-11T11:55:01;38.92;;;15.30;;
25299;SDS011;13241;51.208;4.432;2023-02-11T11:57:37;28.23;;;14.70;;
25299;SDS011;13241;51.208;4.432;2023-02-11T12:00:05;35.60;;;13.25;;
25299;SDS011;13241;51.208;4.432;2023-02-11T12:16:08;27.55;;;13.27;;
25299;SDS011;13241;51.208;4.432;2023-02-11T12:19:17;36.15;;;13.63;;
25299;SDS011;13241;51.208;4.432;2023-02-11T12:22:05;24.48;;;12.30;;
25299;SDS011;13241;51.208;4.432;2023-02-11T12:33:28;22.65;;;10.65;;
25299;SDS011;13241;51.208;4.432;2023-02-11T12:59:07;30.80;;;13.05;;
25299;SDS011;13241;51.208;4.432;2023-02-11T13:01:41;24.13;;;12.15;;
25299;SDS011;13241;51.208;4.432;2023-02-11T13:04:12;29.95;;;12.55;;
25299;SDS011;13241;51.208;4.432;2023-02-11T13:06:50;28.13;;;12.45;;
25299;SDS011;13241;51.208;4.432;2023-02-11T13:09:30;22.75;;;11.50;;
25299;SDS011;13241;51.208;4.432;2023-02-11T13:12:04;22.85;;;10.32;;
25299;SDS011;13241;51.208;4.432;2023-02-11T13:14:52;29.30;;;11.88;;
25299;SDS011;13241;51.208;4.432;2023-02-11T13:17:26;21.85;;;10.35;;
25299;SDS011;13241;51.208;4.432;2023-02-11T13:22:55;29.50;;;11.52;;
25299;SDS011;13241;51.208;4.432;2023-02-11T13:25:34;30.63;;;10.75;;
25299;SDS011;13241;51.208;4.432;2023-02-11T13:31:14;23.73;;;12.07;;
25299;SDS011;13241;51.208;4.432;2023-02-11T13:33:45;25.60;;;11.02;;
25299;SDS011;13241;51.208;4.432;2023-02-11T13:36:15;28.17;;;12.13;;
25299;SDS011;13241;51.208;4.432;2023-02-11T13:38:53;27.77;;;12.63;;
25299;SDS011;13241;51.208;4.432;2023-02-11T13:41:25;27.10;;;10.55;;
25299;SDS011;13241;51.208;4.432;2023-02-11T13:44:35;21.92;;;9.73;;
25299;SDS011;13241;51.208;4.432;2023-02-11T13:46:49;26.45;;;12.55;;
25299;SDS011;13241;51.208;4.432;2023-02-11T13:49:20;30.45;;;11.77;;
25299;SDS011;13241;51.208;4.432;2023-02-11T13:51:49;22.23;;;11.15;;
25299;SDS011;13241;51.208;4.432;2023-02-11T13:54:19;20.48;;;10.05;;
25299;SDS011;13241;51.208;4.432;2023-02-11T14:02:29;25.05;;;11.63;;
25299;SDS011;13241;51.208;4.432;2023-02-11T14:05:29;22.10;;;11.05;;
25299;SDS011;13241;51.208;4.432;2023-02-11T14:08:16;21.10;;;10.60;;
25299;SDS011;13241;51.208;4.432;2023-02-11T14:11:07;27.48;;;11.20;;
25299;SDS011;13241;51.208;4.432;2023-02-11T14:16:22;28.90;;;12.15;;
25299;SDS011;13241;51.208;4.432;2023-02-11T14:19:03;26.20;;;13.13;;
25299;SDS011;13241;51.208;4.432;2023-02-11T14:21:32;27.27;;;12.27;;
25299;SDS011;13241;51.208;4.432;2023-02-11T14:29:17;25.45;;;12.35;;
25299;SDS011;13241;51.208;4.432;2023-02-11T14:43:12;28.63;;;11.38;;
25299;SDS011;13241;51.208;4.432;2023-02-11T14:45:47;25.00;;;11.55;;
25299;SDS011;13241;51.208;4.432;2023-02-11T14:48:19;47.58;;;12.43;;
25299;SDS011;13241;51.208;4.432;2023-02-11T14:50:53;25.67;;;10.85;;
25299;SDS011;13241;51.208;4.432;2023-02-11T14:53:32;24.65;;;10.90;;
25299;SDS011;13241;51.208;4.432;2023-02-11T14:56:00;22.92;;;9.80;;
25299;SDS011;13241;51.208;4.432;2023-02-11T14:58:28;26.80;;;11.52;;
25299;SDS011;13241;51.208;4.432;2023-02-11T15:03:27;26.92;;;10.75;;
25299;SDS011;13241;51.208;4.432;2023-02-11T15:06:00;27.85;;;10.63;;
25299;SDS011;13241;51.208;4.432;2023-02-11T15:08:33;22.15;;;11.52;;
25299;SDS011;13241;51.208;4.432;2023-02-11T15:11:06;22.88;;;10.93;;
25299;SDS011;13241;51.208;4.432;2023-02-11T15:16:05;26.75;;;10.88;;
25299;SDS011;13241;51.208;4.432;2023-02-11T15:18:36;18.92;;;9.63;;
25299;SDS011;13241;51.208;4.432;2023-02-11T15:21:07;21.85;;;10.40;;
25299;SDS011;13241;51.208;4.432;2023-02-11T15:23:34;22.70;;;9.52;;
25299;SDS011;13241;51.208;4.432;2023-02-11T15:26:02;18.92;;;10.55;;
25299;SDS011;13241;51.208;4.432;2023-02-11T15:28:38;24.42;;;9.75;;
25299;SDS011;13241;51.208;4.432;2023-02-11T15:31:17;22.05;;;9.25;;
25299;SDS011;13241;51.208;4.432;2023-02-11T15:33:49;27.25;;;11.15;;
25299;SDS011;13241;51.208;4.432;2023-02-11T15:36:18;20.00;;;9.18;;
25299;SDS011;13241;51.208;4.432;2023-02-11T15:39:14;23.65;;;10.63;;
25299;SDS011;13241;51.208;4.432;2023-02-11T15:41:43;23.27;;;10.27;;
25299;SDS011;13241;51.208;4.432;2023-02-11T15:44:30;27.15;;;10.93;;
25299;SDS011;13241;51.208;4.432;2023-02-11T15:46:58;23.98;;;11.05;;
25299;SDS011;13241;51.208;4.432;2023-02-11T15:49:25;25.80;;;11.20;;
25299;SDS011;13241;51.208;4.432;2023-02-11T15:51:53;24.27;;;10.00;;
25299;SDS011;13241;51.208;4.432;2023-02-11T15:54:23;26.10;;;10.70;;
25299;SDS011;13241;51.208;4.432;2023-02-11T15:56:53;26.65;;;10.45;;
25299;SDS011;13241;51.208;4.432;2023-02-11T15:59:27;22.90;;;10.60;;
25299;SDS011;13241;51.208;4.432;2023-02-11T16:02:08;25.08;;;12.07;;
25299;SDS011;13241;51.208;4.432;2023-02-11T16:04:57;23.90;;;10.18;;
25299;SDS011;13241;51.208;4.432;2023-02-11T16:10:16;21.23;;;9.90;;
25299;SDS011;13241;51.208;4.432;2023-02-11T16:15:40;24.90;;;9.27;;
25299;SDS011;13241;51.208;4.432;2023-02-11T16:18:24;27.10;;;11.13;;
25299;SDS011;13241;51.208;4.432;2023-02-11T16:21:03;18.85;;;9.05;;
25299;SDS011;13241;51.208;4.432;2023-02-11T16:23:37;20.80;;;9.50;;
25299;SDS011;13241;51.208;4.432;2023-02-11T16:26:20;25.90;;;11.30;;
25299;SDS011;13241;51.208;4.432;2023-02-11T16:28:51;19.80;;;9.10;;
25299;SDS011;13241;51.208;4.432;2023-02-11T16:31:18;22.70;;;10.35;;
25299;SDS011;13241;51.208;4.432;2023-02-11T16:33:45;21.05;;;9.00;;
25299;SDS011;13241;51.208;4.432;2023-02-11T16:36:12;23.90;;;10.50;;
25299;SDS011;13241;51.208;4.432;2023-02-11T16:38:42;20.80;;;9.15;;
25299;SDS011;13241;51.208;4.432;2023-02-11T16:41:09;30.20;;;10.13;;
25299;SDS011;13241;51.208;4.432;2023-02-11T16:43:37;18.80;;;9.07;;
25299;SDS011;13241;51.208;4.432;2023-02-11T16:46:05;23.50;;;10.32;;
25299;SDS011;13241;51.208;4.432;2023-02-11T16:48:32;22.00;;;9.82;;
25299;SDS011;13241;51.208;4.432;2023-02-11T16:51:00;20.80;;;9.45;;
25299;SDS011;13241;51.208;4.432;2023-02-11T16:53:26;19.27;;;9.10;;
25299;SDS011;13241;51.208;4.432;2023-02-11T16:55:53;20.23;;;8.85;;
25299;SDS011;13241;51.208;4.432;2023-02-11T16:58:20;26.52;;;10.82;;
25299;SDS011;13241;51.208;4.432;2023-02-11T17:00:47;19.35;;;9.80;;
25299;SDS011;13241;51.208;4.432;2023-02-11T17:03:20;19.13;;;9.55;;
25299;SDS011;13241;51.208;4.432;2023-02-11T17:05:49;19.35;;;10.18;;
25299;SDS011;13241;51.208;4.432;2023-02-11T17:08:21;27.83;;;10.48;;
25299;SDS011;13241;51.208;4.432;2023-02-11T17:10:48;24.00;;;10.40;;
25299;SDS011;13241;51.208;4.432;2023-02-11T17:13:15;21.17;;;9.35;;
25299;SDS011;13241;51.208;4.432;2023-02-11T17:15:42;19.42;;;9.80;;
25299;SDS011;13241;51.208;4.432;2023-02-11T17:18:11;18.45;;;9.75;;
25299;SDS011;13241;51.208;4.432;2023-02-11T17:20:39;21.70;;;10.25;;
25299;SDS011;13241;51.208;4.432;2023-02-11T17:23:06;21.13;;;10.20;;
25299;SDS011;13241;51.208;4.432;2023-02-11T17:25:34;22.30;;;10.80;;
25299;SDS011;13241;51.208;4.432;2023-02-11T17:28:04;23.83;;;10.52;;
25299;SDS011;13241;51.208;4.432;2023-02-11T17:30:32;24.17;;;9.38;;
25299;SDS011;13241;51.208;4.432;2023-02-11T17:32:59;29.70;;;10.18;;
25299;SDS011;13241;51.208;4.432;2023-02-11T17:35:26;22.67;;;10.13;;
25299;SDS011;13241;51.208;4.432;2023-02-11T17:37:53;22.75;;;9.35;;
25299;SDS011;13241;51.208;4.432;2023-02-11T17:40:19;25.20;;;9.75;;